sensor_id;sensor_type;location;lat;lon;timestamp;temperature;humidity
66373;SHT30;53168;51.146;17.120;2024-03-06T00:00:09;5.29;75.70
66373;SHT30;53168;51.146;17.120;2024-03-06T00:03:06;5.29;75.70
66373;SHT30;53168;51.146;17.120;2024-03-06T00:05:41;5.26;75.71
66373;SHT30;53168;51.146;17.120;2024-03-06T00:08:15;5.25;75.71
66373;SHT30;53168;51.146;17.120;2024-03-06T00:10:50;5.25;75.74
66373;SHT30;53168;51.146;17.120;2024-03-06T00:13:25;5.23;75.80
66373;SHT30;53168;51.146;17.120;2024-03-06T00:16:00;5.22;75.84
66373;SHT30;53168;51.146;17.120;2024-03-06T00:18:34;5.21;75.89
66373;SHT30;53168;51.146;17.120;2024-03-06T00:21:09;5.20;75.95
66373;SHT30;53168;51.146;17.120;2024-03-06T00:23:44;5.18;76.00
66373;SHT30;53168;51.146;17.120;2024-03-06T00:26:19;5.15;76.09
66373;SHT30;53168;51.146;17.120;2024-03-06T00:28:54;5.12;76.16
66373;SHT30;53168;51.146;17.120;2024-03-06T00:31:28;5.11;76.20
66373;SHT30;53168;51.146;17.120;2024-03-06T00:34:03;5.10;76.25
66373;SHT30;53168;51.146;17.120;2024-03-06T00:36:39;5.09;76.35
66373;SHT30;53168;51.146;17.120;2024-03-06T00:39:13;5.06;76.39
66373;SHT30;53168;51.146;17.120;2024-03-06T00:41:49;5.05;76.45
66373;SHT30;53168;51.146;17.120;2024-03-06T00:44:26;5.02;76.50
66373;SHT30;53168;51.146;17.120;2024-03-06T00:47:02;5.00;76.56
66373;SHT30;53168;51.146;17.120;2024-03-06T00:49:37;4.97;76.62
66373;SHT30;53168;51.146;17.120;2024-03-06T00:52:14;4.95;76.69
66373;SHT30;53168;51.146;17.120;2024-03-06T00:54:49;4.95;76.70
66373;SHT30;53168;51.146;17.120;2024-03-06T00:57:24;4.93;76.76
66373;SHT30;53168;51.146;17.120;2024-03-06T00:59:59;4.91;76.79
66373;SHT30;53168;51.146;17.120;2024-03-06T01:02:38;4.90;76.80
66373;SHT30;53168;51.146;17.120;2024-03-06T01:05:13;4.89;76.83
66373;SHT30;53168;51.146;17.120;2024-03-06T01:07:49;4.89;76.90
66373;SHT30;53168;51.146;17.120;2024-03-06T01:10:26;4.89;76.91
66373;SHT30;53168;51.146;17.120;2024-03-06T01:13:02;4.88;76.93
66373;SHT30;53168;51.146;17.120;2024-03-06T01:15:42;4.87;76.98
66373;SHT30;53168;51.146;17.120;2024-03-06T01:18:16;4.86;77.00
66373;SHT30;53168;51.146;17.120;2024-03-06T01:20:51;4.84;76.97
66373;SHT30;53168;51.146;17.120;2024-03-06T01:23:26;4.83;76.97
66373;SHT30;53168;51.146;17.120;2024-03-06T01:26:01;4.82;76.90
66373;SHT30;53168;51.146;17.120;2024-03-06T01:28:36;4.84;76.89
66373;SHT30;53168;51.146;17.120;2024-03-06T01:31:11;4.82;76.90
66373;SHT30;53168;51.146;17.120;2024-03-06T01:33:46;4.80;76.93
66373;SHT30;53168;51.146;17.120;2024-03-06T01:36:22;4.77;77.00
66373;SHT30;53168;51.146;17.120;2024-03-06T01:38:57;4.74;77.00
66373;SHT30;53168;51.146;17.120;2024-03-06T01:41:32;4.72;77.04
66373;SHT30;53168;51.146;17.120;2024-03-06T01:44:06;4.67;77.10
66373;SHT30;53168;51.146;17.120;2024-03-06T01:46:41;4.62;77.15
66373;SHT30;53168;51.146;17.120;2024-03-06T01:49:17;4.56;77.22
66373;SHT30;53168;51.146;17.120;2024-03-06T01:52:04;4.53;77.32
66373;SHT30;53168;51.146;17.120;2024-03-06T01:54:40;4.49;77.42
66373;SHT30;53168;51.146;17.120;2024-03-06T01:57:19;4.48;77.50
66373;SHT30;53168;51.146;17.120;2024-03-06T01:59:55;4.44;77.56
66373;SHT30;53168;51.146;17.120;2024-03-06T02:02:31;4.42;77.55
66373;SHT30;53168;51.146;17.120;2024-03-06T02:05:07;4.37;77.60
66373;SHT30;53168;51.146;17.120;2024-03-06T02:07:44;4.31;77.61
66373;SHT30;53168;51.146;17.120;2024-03-06T02:10:20;4.26;77.70
66373;SHT30;53168;51.146;17.120;2024-03-06T02:12:55;4.18;77.69
66373;SHT30;53168;51.146;17.120;2024-03-06T02:15:31;4.09;77.71
66373;SHT30;53168;51.146;17.120;2024-03-06T02:18:09;3.98;77.80
66373;SHT30;53168;51.146;17.120;2024-03-06T02:20:44;3.88;77.93
66373;SHT30;53168;51.146;17.120;2024-03-06T02:23:20;3.78;78.06
66373;SHT30;53168;51.146;17.120;2024-03-06T02:25:55;3.68;78.24
66373;SHT30;53168;51.146;17.120;2024-03-06T02:28:30;3.61;78.36
66373;SHT30;53168;51.146;17.120;2024-03-06T02:31:06;3.54;78.40
66373;SHT30;53168;51.146;17.120;2024-03-06T02:33:41;3.47;78.54
66373;SHT30;53168;51.146;17.120;2024-03-06T02:36:17;3.39;78.62
66373;SHT30;53168;51.146;17.120;2024-03-06T02:38:53;3.32;78.72
66373;SHT30;53168;51.146;17.120;2024-03-06T02:41:28;3.25;78.81
66373;SHT30;53168;51.146;17.120;2024-03-06T02:44:03;3.18;78.91
66373;SHT30;53168;51.146;17.120;2024-03-06T02:46:39;3.10;79.05
66373;SHT30;53168;51.146;17.120;2024-03-06T02:49:14;3.02;79.10
66373;SHT30;53168;51.146;17.120;2024-03-06T02:51:50;2.95;79.10
66373;SHT30;53168;51.146;17.120;2024-03-06T02:54:26;2.86;79.10
66373;SHT30;53168;51.146;17.120;2024-03-06T02:57:01;2.78;79.15
66373;SHT30;53168;51.146;17.120;2024-03-06T02:59:39;2.70;79.20
66373;SHT30;53168;51.146;17.120;2024-03-06T03:02:14;2.62;79.22
66373;SHT30;53168;51.146;17.120;2024-03-06T03:04:50;2.55;79.31
66373;SHT30;53168;51.146;17.120;2024-03-06T03:07:25;2.46;79.40
66373;SHT30;53168;51.146;17.120;2024-03-06T03:10:01;2.41;79.48
66373;SHT30;53168;51.146;17.120;2024-03-06T03:12:39;2.34;79.53
66373;SHT30;53168;51.146;17.120;2024-03-06T03:15:15;2.28;79.60
66373;SHT30;53168;51.146;17.120;2024-03-06T03:17:51;2.23;79.62
66373;SHT30;53168;51.146;17.120;2024-03-06T03:20:26;2.18;79.74
66373;SHT30;53168;51.146;17.120;2024-03-06T03:23:01;2.15;79.82
66373;SHT30;53168;51.146;17.120;2024-03-06T03:25:37;2.09;79.89
66373;SHT30;53168;51.146;17.120;2024-03-06T03:28:12;2.04;79.90
66373;SHT30;53168;51.146;17.120;2024-03-06T03:30:48;1.99;79.91
66373;SHT30;53168;51.146;17.120;2024-03-06T03:33:22;1.95;79.99
66373;SHT30;53168;51.146;17.120;2024-03-06T03:35:57;1.89;80.00
66373;SHT30;53168;51.146;17.120;2024-03-06T03:38:32;1.85;80.00
66373;SHT30;53168;51.146;17.120;2024-03-06T03:41:11;1.80;80.00
66373;SHT30;53168;51.146;17.120;2024-03-06T03:43:48;1.77;80.00
66373;SHT30;53168;51.146;17.120;2024-03-06T03:46:23;1.73;80.06
66373;SHT30;53168;51.146;17.120;2024-03-06T03:48:57;1.70;80.17
66373;SHT30;53168;51.146;17.120;2024-03-06T03:51:33;1.67;80.20
66373;SHT30;53168;51.146;17.120;2024-03-06T03:54:08;1.63;80.22
66373;SHT30;53168;51.146;17.120;2024-03-06T03:56:43;1.59;80.20
66373;SHT30;53168;51.146;17.120;2024-03-06T03:59:18;1.56;80.29
66373;SHT30;53168;51.146;17.120;2024-03-06T04:01:53;1.53;80.30
66373;SHT30;53168;51.146;17.120;2024-03-06T04:04:29;1.49;80.30
66373;SHT30;53168;51.146;17.120;2024-03-06T04:07:06;1.45;80.31
66373;SHT30;53168;51.146;17.120;2024-03-06T04:09:41;1.42;80.33
66373;SHT30;53168;51.146;17.120;2024-03-06T04:12:16;1.38;80.32
66373;SHT30;53168;51.146;17.120;2024-03-06T04:14:51;1.34;80.40
66373;SHT30;53168;51.146;17.120;2024-03-06T04:17:25;1.31;80.48
66373;SHT30;53168;51.146;17.120;2024-03-06T04:20:00;1.27;80.50
66373;SHT30;53168;51.146;17.120;2024-03-06T04:22:35;1.24;80.58
66373;SHT30;53168;51.146;17.120;2024-03-06T04:25:12;1.22;80.65
66373;SHT30;53168;51.146;17.120;2024-03-06T04:27:48;1.19;80.73
66373;SHT30;53168;51.146;17.120;2024-03-06T04:30:26;1.17;80.82
66373;SHT30;53168;51.146;17.120;2024-03-06T04:33:01;1.16;80.90
66373;SHT30;53168;51.146;17.120;2024-03-06T04:35:36;1.15;80.90
66373;SHT30;53168;51.146;17.120;2024-03-06T04:38:11;1.12;80.92
66373;SHT30;53168;51.146;17.120;2024-03-06T04:40:46;1.09;80.97
66373;SHT30;53168;51.146;17.120;2024-03-06T04:43:22;1.09;81.00
66373;SHT30;53168;51.146;17.120;2024-03-06T04:45:57;1.07;81.05
66373;SHT30;53168;51.146;17.120;2024-03-06T04:48:31;1.03;81.03
66373;SHT30;53168;51.146;17.120;2024-03-06T04:51:06;1.00;81.00
66373;SHT30;53168;51.146;17.120;2024-03-06T04:53:42;0.96;81.03
66373;SHT30;53168;51.146;17.120;2024-03-06T04:56:17;0.95;81.09
66373;SHT30;53168;51.146;17.120;2024-03-06T04:58:54;0.94;81.19
66373;SHT30;53168;51.146;17.120;2024-03-06T05:01:34;0.92;81.23
66373;SHT30;53168;51.146;17.120;2024-03-06T05:04:09;0.88;81.26
66373;SHT30;53168;51.146;17.120;2024-03-06T05:07:02;0.85;81.21
66373;SHT30;53168;51.146;17.120;2024-03-06T05:09:55;0.81;81.20
66373;SHT30;53168;51.146;17.120;2024-03-06T05:12:48;0.78;81.25
66373;SHT30;53168;51.146;17.120;2024-03-06T05:15:40;0.76;81.32
66373;SHT30;53168;51.146;17.120;2024-03-06T05:18:32;0.75;81.40
66373;SHT30;53168;51.146;17.120;2024-03-06T05:21:26;0.75;81.44
66373;SHT30;53168;51.146;17.120;2024-03-06T05:24:18;0.77;81.52
66373;SHT30;53168;51.146;17.120;2024-03-06T05:27:13;0.80;81.60
66373;SHT30;53168;51.146;17.120;2024-03-06T05:30:08;0.83;81.63
66373;SHT30;53168;51.146;17.120;2024-03-06T05:33:02;0.86;81.69
66373;SHT30;53168;51.146;17.120;2024-03-06T05:35:54;0.90;81.71
66373;SHT30;53168;51.146;17.120;2024-03-06T05:38:48;0.92;81.70
66373;SHT30;53168;51.146;17.120;2024-03-06T05:41:41;0.94;81.70
66373;SHT30;53168;51.146;17.120;2024-03-06T05:44:33;0.97;81.70
66373;SHT30;53168;51.146;17.120;2024-03-06T05:47:26;1.01;81.78
66373;SHT30;53168;51.146;17.120;2024-03-06T05:50:23;1.05;81.80
66373;SHT30;53168;51.146;17.120;2024-03-06T05:53:15;1.09;81.80
66373;SHT30;53168;51.146;17.120;2024-03-06T05:56:08;1.13;81.80
66373;SHT30;53168;51.146;17.120;2024-03-06T05:59:00;1.16;81.78
66373;SHT30;53168;51.146;17.120;2024-03-06T06:01:35;1.19;81.71
66373;SHT30;53168;51.146;17.120;2024-03-06T06:04:11;1.21;81.70
66373;SHT30;53168;51.146;17.120;2024-03-06T06:06:46;1.24;81.70
66373;SHT30;53168;51.146;17.120;2024-03-06T06:09:21;1.28;81.70
66373;SHT30;53168;51.146;17.120;2024-03-06T06:11:55;1.30;81.70
66373;SHT30;53168;51.146;17.120;2024-03-06T06:14:30;1.33;81.70
66373;SHT30;53168;51.146;17.120;2024-03-06T06:17:05;1.39;81.78
66373;SHT30;53168;51.146;17.120;2024-03-06T06:19:40;1.45;81.84
66373;SHT30;53168;51.146;17.120;2024-03-06T06:22:16;1.53;81.90
66373;SHT30;53168;51.146;17.120;2024-03-06T06:24:51;1.60;81.90
66373;SHT30;53168;51.146;17.120;2024-03-06T06:27:27;1.67;81.84
66373;SHT30;53168;51.146;17.120;2024-03-06T06:30:01;1.75;81.80
66373;SHT30;53168;51.146;17.120;2024-03-06T06:32:38;1.82;81.80
66373;SHT30;53168;51.146;17.120;2024-03-06T06:35:13;1.90;81.75
66373;SHT30;53168;51.146;17.120;2024-03-06T06:37:49;1.98;81.70
66373;SHT30;53168;51.146;17.120;2024-03-06T06:40:23;2.05;81.70
66373;SHT30;53168;51.146;17.120;2024-03-06T06:42:59;2.14;81.67
66373;SHT30;53168;51.146;17.120;2024-03-06T06:45:34;2.23;81.60
66373;SHT30;53168;51.146;17.120;2024-03-06T06:48:09;2.32;81.58
66373;SHT30;53168;51.146;17.120;2024-03-06T06:50:44;2.40;81.47
66373;SHT30;53168;51.146;17.120;2024-03-06T06:53:19;2.46;81.37
66373;SHT30;53168;51.146;17.120;2024-03-06T06:55:54;2.50;81.31
66373;SHT30;53168;51.146;17.120;2024-03-06T06:58:29;2.57;81.31
66373;SHT30;53168;51.146;17.120;2024-03-06T07:01:03;2.62;81.30
66373;SHT30;53168;51.146;17.120;2024-03-06T07:03:38;2.71;81.25
66373;SHT30;53168;51.146;17.120;2024-03-06T07:06:14;2.79;81.23
66373;SHT30;53168;51.146;17.120;2024-03-06T07:08:49;2.91;81.23
66373;SHT30;53168;51.146;17.120;2024-03-06T07:11:24;3.01;81.18
66373;SHT30;53168;51.146;17.120;2024-03-06T07:13:58;3.12;81.08
66373;SHT30;53168;51.146;17.120;2024-03-06T07:16:33;3.23;80.97
66373;SHT30;53168;51.146;17.120;2024-03-06T07:19:13;3.34;80.89
66373;SHT30;53168;51.146;17.120;2024-03-06T07:21:48;3.47;80.80
66373;SHT30;53168;51.146;17.120;2024-03-06T07:24:23;3.60;80.72
66373;SHT30;53168;51.146;17.120;2024-03-06T07:26:58;3.73;80.60
66373;SHT30;53168;51.146;17.120;2024-03-06T07:29:33;3.85;80.45
66373;SHT30;53168;51.146;17.120;2024-03-06T07:32:08;3.96;80.31
66373;SHT30;53168;51.146;17.120;2024-03-06T07:34:43;4.07;80.14
66373;SHT30;53168;51.146;17.120;2024-03-06T07:37:19;4.14;79.91
66373;SHT30;53168;51.146;17.120;2024-03-06T07:39:53;4.20;79.80
66373;SHT30;53168;51.146;17.120;2024-03-06T07:42:28;4.31;79.74
66373;SHT30;53168;51.146;17.120;2024-03-06T07:45:03;4.41;79.54
66373;SHT30;53168;51.146;17.120;2024-03-06T07:47:40;4.50;79.39
66373;SHT30;53168;51.146;17.120;2024-03-06T07:50:15;4.63;79.37
66373;SHT30;53168;51.146;17.120;2024-03-06T07:52:51;4.72;79.03
66373;SHT30;53168;51.146;17.120;2024-03-06T07:55:25;4.82;79.02
66373;SHT30;53168;51.146;17.120;2024-03-06T07:57:58;4.96;78.92
66373;SHT30;53168;51.146;17.120;2024-03-06T08:00:32;5.10;78.84
66373;SHT30;53168;51.146;17.120;2024-03-06T08:03:06;5.22;78.50
66373;SHT30;53168;51.146;17.120;2024-03-06T08:05:44;5.30;78.27
66373;SHT30;53168;51.146;17.120;2024-03-06T08:08:18;5.38;78.06
66373;SHT30;53168;51.146;17.120;2024-03-06T08:10:52;5.45;77.90
66373;SHT30;53168;51.146;17.120;2024-03-06T08:13:26;5.54;77.71
66373;SHT30;53168;51.146;17.120;2024-03-06T08:17:45;5.64;77.28
66373;SHT30;53168;51.146;17.120;2024-03-06T08:20:20;5.69;77.21
66373;SHT30;53168;51.146;17.120;2024-03-06T08:22:54;5.75;77.00
66373;SHT30;53168;51.146;17.120;2024-03-06T08:25:29;5.79;76.85
66373;SHT30;53168;51.146;17.120;2024-03-06T08:28:03;5.87;76.87
66373;SHT30;53168;51.146;17.120;2024-03-06T08:30:37;5.97;76.66
66373;SHT30;53168;51.146;17.120;2024-03-06T08:33:11;6.08;76.50
66373;SHT30;53168;51.146;17.120;2024-03-06T08:35:46;6.20;76.32
66373;SHT30;53168;51.146;17.120;2024-03-06T08:38:19;6.31;75.99
66373;SHT30;53168;51.146;17.120;2024-03-06T08:40:54;6.42;75.95
66373;SHT30;53168;51.146;17.120;2024-03-06T08:43:27;6.54;75.66
66373;SHT30;53168;51.146;17.120;2024-03-06T08:46:01;6.67;75.57
66373;SHT30;53168;51.146;17.120;2024-03-06T08:48:34;6.76;74.96
66373;SHT30;53168;51.146;17.120;2024-03-06T08:51:09;6.84;74.96
66373;SHT30;53168;51.146;17.120;2024-03-06T08:53:42;6.98;74.92
66373;SHT30;53168;51.146;17.120;2024-03-06T08:56:17;7.09;74.51
66373;SHT30;53168;51.146;17.120;2024-03-06T08:58:50;7.19;74.27
66373;SHT30;53168;51.146;17.120;2024-03-06T09:01:24;7.29;73.60
66373;SHT30;53168;51.146;17.120;2024-03-06T09:15:33;8.14;72.05
66373;SHT30;53168;51.146;17.120;2024-03-06T09:18:08;8.22;71.21
66373;SHT30;53168;51.146;17.120;2024-03-06T09:20:42;8.16;70.80
66373;SHT30;53168;51.146;17.120;2024-03-06T09:34:38;8.45;70.18
66373;SHT30;53168;51.146;17.120;2024-03-06T09:37:11;8.52;68.79
66373;SHT30;53168;51.146;17.120;2024-03-06T09:39:45;8.53;68.20
66373;SHT30;53168;51.146;17.120;2024-03-06T09:42:18;8.48;68.57
66373;SHT30;53168;51.146;17.120;2024-03-06T09:44:53;8.37;68.83
66373;SHT30;53168;51.146;17.120;2024-03-06T10:04:21;8.96;65.71
66373;SHT30;53168;51.146;17.120;2024-03-06T10:06:57;8.99;66.19
66373;SHT30;53168;51.146;17.120;2024-03-06T10:09:34;9.13;65.32
66373;SHT30;53168;51.146;17.120;2024-03-06T10:12:07;9.10;64.99
66373;SHT30;53168;51.146;17.120;2024-03-06T10:14:52;9.14;64.87
66373;SHT30;53168;51.146;17.120;2024-03-06T10:17:27;9.02;64.50
66373;SHT30;53168;51.146;17.120;2024-03-06T10:20:01;9.03;65.06
66373;SHT30;53168;51.146;17.120;2024-03-06T10:22:54;9.22;65.43
66373;SHT30;53168;51.146;17.120;2024-03-06T10:25:30;9.24;65.28
66373;SHT30;53168;51.146;17.120;2024-03-06T10:28:12;9.04;65.32
66373;SHT30;53168;51.146;17.120;2024-03-06T10:30:45;8.97;65.57
66373;SHT30;53168;51.146;17.120;2024-03-06T10:33:20;8.94;65.49
66373;SHT30;53168;51.146;17.120;2024-03-06T10:35:54;8.92;65.24
66373;SHT30;53168;51.146;17.120;2024-03-06T10:40:47;8.66;65.26
66373;SHT30;53168;51.146;17.120;2024-03-06T10:43:25;8.56;65.76
66373;SHT30;53168;51.146;17.120;2024-03-06T10:46:02;8.49;65.39
66373;SHT30;53168;51.146;17.120;2024-03-06T10:48:42;8.38;65.43
66373;SHT30;53168;51.146;17.120;2024-03-06T10:51:19;8.21;65.67
66373;SHT30;53168;51.146;17.120;2024-03-06T10:53:58;8.06;65.72
66373;SHT30;53168;51.146;17.120;2024-03-06T10:56:32;7.96;66.02
66373;SHT30;53168;51.146;17.120;2024-03-06T10:59:08;7.87;66.04
66373;SHT30;53168;51.146;17.120;2024-03-06T11:01:49;7.83;66.32
66373;SHT30;53168;51.146;17.120;2024-03-06T11:04:25;7.86;66.57
66373;SHT30;53168;51.146;17.120;2024-03-06T11:07:01;7.88;66.68
66373;SHT30;53168;51.146;17.120;2024-03-06T11:09:37;7.90;66.86
66373;SHT30;53168;51.146;17.120;2024-03-06T11:12:11;7.90;66.86
66373;SHT30;53168;51.146;17.120;2024-03-06T11:15:11;7.82;66.90
66373;SHT30;53168;51.146;17.120;2024-03-06T11:17:48;7.76;67.00
66373;SHT30;53168;51.146;17.120;2024-03-06T11:20:22;7.76;67.19
66373;SHT30;53168;51.146;17.120;2024-03-06T11:23:10;7.79;67.05
66373;SHT30;53168;51.146;17.120;2024-03-06T11:26:03;7.72;66.56
66373;SHT30;53168;51.146;17.120;2024-03-06T11:28:43;7.65;66.64
66373;SHT30;53168;51.146;17.120;2024-03-06T11:31:20;7.64;66.57
66373;SHT30;53168;51.146;17.120;2024-03-06T11:33:56;7.73;66.49
66373;SHT30;53168;51.146;17.120;2024-03-06T11:36:35;7.81;66.44
66373;SHT30;53168;51.146;17.120;2024-03-06T11:39:15;7.88;66.30
66373;SHT30;53168;51.146;17.120;2024-03-06T11:41:50;7.98;66.08
66373;SHT30;53168;51.146;17.120;2024-03-06T11:44:24;8.11;65.90
66373;SHT30;53168;51.146;17.120;2024-03-06T11:47:03;8.28;65.54
66373;SHT30;53168;51.146;17.120;2024-03-06T11:49:40;8.51;65.41
66373;SHT30;53168;51.146;17.120;2024-03-06T11:52:14;8.76;65.08
66373;SHT30;53168;51.146;17.120;2024-03-06T11:54:48;9.03;64.81
66373;SHT30;53168;51.146;17.120;2024-03-06T11:57:23;9.41;64.43
66373;SHT30;53168;51.146;17.120;2024-03-06T12:00:04;9.70;63.87
66373;SHT30;53168;51.146;17.120;2024-03-06T12:02:44;9.85;63.89
66373;SHT30;53168;51.146;17.120;2024-03-06T12:05:18;9.94;63.71
66373;SHT30;53168;51.146;17.120;2024-03-06T12:07:52;9.90;63.05
66373;SHT30;53168;51.146;17.120;2024-03-06T12:10:26;9.71;62.09
66373;SHT30;53168;51.146;17.120;2024-03-06T12:13:00;9.38;62.06
66373;SHT30;53168;51.146;17.120;2024-03-06T12:15:33;9.19;62.89
66373;SHT30;53168;51.146;17.120;2024-03-06T12:18:07;9.15;62.85
66373;SHT30;53168;51.146;17.120;2024-03-06T12:20:43;9.15;63.14
66373;SHT30;53168;51.146;17.120;2024-03-06T12:23:24;9.13;62.96
66373;SHT30;53168;51.146;17.120;2024-03-06T12:26:09;8.99;63.11
66373;SHT30;53168;51.146;17.120;2024-03-06T12:28:43;8.80;63.29
66373;SHT30;53168;51.146;17.120;2024-03-06T12:31:17;8.63;63.20
66373;SHT30;53168;51.146;17.120;2024-03-06T12:33:58;8.46;63.29
66373;SHT30;53168;51.146;17.120;2024-03-06T12:36:34;8.30;63.18
66373;SHT30;53168;51.146;17.120;2024-03-06T12:39:08;8.17;63.18
66373;SHT30;53168;51.146;17.120;2024-03-06T12:41:44;7.98;63.31
66373;SHT30;53168;51.146;17.120;2024-03-06T12:44:18;7.83;63.72
66373;SHT30;53168;51.146;17.120;2024-03-06T12:46:52;7.71;63.92
66373;SHT30;53168;51.146;17.120;2024-03-06T12:49:26;7.65;64.30
66373;SHT30;53168;51.146;17.120;2024-03-06T12:51:59;7.64;64.50
66373;SHT30;53168;51.146;17.120;2024-03-06T12:54:43;7.62;64.74
66373;SHT30;53168;51.146;17.120;2024-03-06T12:57:27;7.62;64.95
66373;SHT30;53168;51.146;17.120;2024-03-06T13:00:10;7.59;65.02
66373;SHT30;53168;51.146;17.120;2024-03-06T13:02:53;7.51;65.08
66373;SHT30;53168;51.146;17.120;2024-03-06T13:05:30;7.44;65.31
66373;SHT30;53168;51.146;17.120;2024-03-06T13:08:07;7.40;65.55
66373;SHT30;53168;51.146;17.120;2024-03-06T13:10:47;7.36;65.64
66373;SHT30;53168;51.146;17.120;2024-03-06T13:13:29;7.24;65.77
66373;SHT30;53168;51.146;17.120;2024-03-06T13:16:11;7.14;66.00
66373;SHT30;53168;51.146;17.120;2024-03-06T13:18:45;7.05;66.16
66373;SHT30;53168;51.146;17.120;2024-03-06T13:21:19;6.99;66.46
66373;SHT30;53168;51.146;17.120;2024-03-06T13:23:54;7.00;66.76
66373;SHT30;53168;51.146;17.120;2024-03-06T13:26:35;7.01;66.84
66373;SHT30;53168;51.146;17.120;2024-03-06T13:29:12;7.03;66.92
66373;SHT30;53168;51.146;17.120;2024-03-06T13:31:50;7.01;66.95
66373;SHT30;53168;51.146;17.120;2024-03-06T13:34:25;6.99;67.05
66373;SHT30;53168;51.146;17.120;2024-03-06T13:36:59;6.96;67.27
66373;SHT30;53168;51.146;17.120;2024-03-06T13:52:48;6.74;68.04
66373;SHT30;53168;51.146;17.120;2024-03-06T13:55:39;6.72;68.16
66373;SHT30;53168;51.146;17.120;2024-03-06T13:58:13;6.70;68.30
66373;SHT30;53168;51.146;17.120;2024-03-06T14:00:46;6.72;68.47
66373;SHT30;53168;51.146;17.120;2024-03-06T14:03:21;6.72;68.55
66373;SHT30;53168;51.146;17.120;2024-03-06T14:05:54;6.72;68.64
66373;SHT30;53168;51.146;17.120;2024-03-06T14:08:28;6.70;68.69
66373;SHT30;53168;51.146;17.120;2024-03-06T14:11:02;6.68;68.83
66373;SHT30;53168;51.146;17.120;2024-03-06T14:13:37;6.66;68.89
66373;SHT30;53168;51.146;17.120;2024-03-06T14:16:10;6.63;69.02
66373;SHT30;53168;51.146;17.120;2024-03-06T14:18:44;6.62;69.13
66373;SHT30;53168;51.146;17.120;2024-03-06T14:21:17;6.61;69.21
66373;SHT30;53168;51.146;17.120;2024-03-06T14:23:51;6.57;69.33
66373;SHT30;53168;51.146;17.120;2024-03-06T14:26:25;6.56;69.46
66373;SHT30;53168;51.146;17.120;2024-03-06T14:28:59;6.55;69.54
66373;SHT30;53168;51.146;17.120;2024-03-06T14:31:33;6.55;69.69
66373;SHT30;53168;51.146;17.120;2024-03-06T14:34:07;6.53;69.90
66373;SHT30;53168;51.146;17.120;2024-03-06T14:36:42;6.50;70.08
66373;SHT30;53168;51.146;17.120;2024-03-06T14:39:16;6.44;70.26
66373;SHT30;53168;51.146;17.120;2024-03-06T14:41:52;6.36;70.42
66373;SHT30;53168;51.146;17.120;2024-03-06T14:44:25;6.32;70.62
66373;SHT30;53168;51.146;17.120;2024-03-06T14:46:59;6.25;70.82
66373;SHT30;53168;51.146;17.120;2024-03-06T14:49:36;6.20;71.05
66373;SHT30;53168;51.146;17.120;2024-03-06T14:52:11;6.16;71.34
66373;SHT30;53168;51.146;17.120;2024-03-06T14:54:45;6.11;71.56
66373;SHT30;53168;51.146;17.120;2024-03-06T14:57:19;6.03;71.91
66373;SHT30;53168;51.146;17.120;2024-03-06T14:59:54;5.95;72.09
66373;SHT30;53168;51.146;17.120;2024-03-06T15:02:28;5.90;72.24
66373;SHT30;53168;51.146;17.120;2024-03-06T15:05:03;5.82;72.43
66373;SHT30;53168;51.146;17.120;2024-03-06T15:07:37;5.74;72.50
66373;SHT30;53168;51.146;17.120;2024-03-06T15:10:11;5.69;72.54
66373;SHT30;53168;51.146;17.120;2024-03-06T15:12:44;5.67;72.53
66373;SHT30;53168;51.146;17.120;2024-03-06T15:15:18;5.66;72.60
66373;SHT30;53168;51.146;17.120;2024-03-06T15:17:52;5.64;72.77
66373;SHT30;53168;51.146;17.120;2024-03-06T15:20:25;5.61;72.90
66373;SHT30;53168;51.146;17.120;2024-03-06T15:22:59;5.57;73.00
66373;SHT30;53168;51.146;17.120;2024-03-06T15:25:33;5.54;73.27
66373;SHT30;53168;51.146;17.120;2024-03-06T15:28:07;5.48;73.47
66373;SHT30;53168;51.146;17.120;2024-03-06T15:30:41;5.43;73.80
66373;SHT30;53168;51.146;17.120;2024-03-06T15:33:14;5.39;73.95
66373;SHT30;53168;51.146;17.120;2024-03-06T15:37:33;5.33;74.31
66373;SHT30;53168;51.146;17.120;2024-03-06T15:40:09;5.31;74.49
66373;SHT30;53168;51.146;17.120;2024-03-06T15:42:43;5.29;74.66
66373;SHT30;53168;51.146;17.120;2024-03-06T15:45:17;5.27;74.81
66373;SHT30;53168;51.146;17.120;2024-03-06T15:47:52;5.25;74.93
66373;SHT30;53168;51.146;17.120;2024-03-06T15:50:26;5.24;75.08
66373;SHT30;53168;51.146;17.120;2024-03-06T15:52:59;5.21;75.22
66373;SHT30;53168;51.146;17.120;2024-03-06T15:55:34;5.20;75.38
66373;SHT30;53168;51.146;17.120;2024-03-06T15:58:08;5.18;75.56
66373;SHT30;53168;51.146;17.120;2024-03-06T16:00:42;5.19;75.73
66373;SHT30;53168;51.146;17.120;2024-03-06T16:03:15;5.17;75.90
66373;SHT30;53168;51.146;17.120;2024-03-06T16:05:49;5.15;76.00
66373;SHT30;53168;51.146;17.120;2024-03-06T16:08:39;5.15;76.11
66373;SHT30;53168;51.146;17.120;2024-03-06T16:11:14;5.14;76.24
66373;SHT30;53168;51.146;17.120;2024-03-06T16:13:47;5.13;76.45
66373;SHT30;53168;51.146;17.120;2024-03-06T16:16:21;5.12;76.61
66373;SHT30;53168;51.146;17.120;2024-03-06T16:18:55;5.10;76.79
66373;SHT30;53168;51.146;17.120;2024-03-06T16:21:28;5.09;76.80
66373;SHT30;53168;51.146;17.120;2024-03-06T16:24:03;5.11;76.91
66373;SHT30;53168;51.146;17.120;2024-03-06T16:27:53;5.13;77.08
66373;SHT30;53168;51.146;17.120;2024-03-06T16:30:42;5.13;77.10
66373;SHT30;53168;51.146;17.120;2024-03-06T16:33:20;5.15;77.18
66373;SHT30;53168;51.146;17.120;2024-03-06T16:36:01;5.15;77.30
66373;SHT30;53168;51.146;17.120;2024-03-06T16:38:38;5.16;77.40
66373;SHT30;53168;51.146;17.120;2024-03-06T16:41:32;5.17;77.49
66373;SHT30;53168;51.146;17.120;2024-03-06T16:55:53;5.22;78.19
66373;SHT30;53168;51.146;17.120;2024-03-06T16:58:24;5.21;78.30
66373;SHT30;53168;51.146;17.120;2024-03-06T17:00:55;5.22;78.33
66373;SHT30;53168;51.146;17.120;2024-03-06T17:03:26;5.24;78.41
66373;SHT30;53168;51.146;17.120;2024-03-06T17:12:11;5.26;78.69
66373;SHT30;53168;51.146;17.120;2024-03-06T17:14:46;5.28;78.76
66373;SHT30;53168;51.146;17.120;2024-03-06T17:17:21;5.30;78.76
66373;SHT30;53168;51.146;17.120;2024-03-06T17:19:56;5.31;78.80
66373;SHT30;53168;51.146;17.120;2024-03-06T17:22:30;5.33;78.85
66373;SHT30;53168;51.146;17.120;2024-03-06T17:25:06;5.33;78.97
66373;SHT30;53168;51.146;17.120;2024-03-06T17:27:41;5.34;79.03
66373;SHT30;53168;51.146;17.120;2024-03-06T17:30:21;5.34;79.20
66373;SHT30;53168;51.146;17.120;2024-03-06T17:33:15;5.35;79.22
66373;SHT30;53168;51.146;17.120;2024-03-06T17:35:57;5.36;79.30
66373;SHT30;53168;51.146;17.120;2024-03-06T17:38:37;5.37;79.39
66373;SHT30;53168;51.146;17.120;2024-03-06T17:41:14;5.38;79.38
66373;SHT30;53168;51.146;17.120;2024-03-06T17:43:50;5.41;79.40
66373;SHT30;53168;51.146;17.120;2024-03-06T17:46:24;5.43;79.46